createdAt,value
2018-08-09T00:01:14.002Z,20.44
2018-08-09T00:03:41.013Z,20.25
2018-08-09T00:06:07.919Z,20.08
2018-08-09T00:08:34.816Z,20.13
2018-08-09T00:11:01.860Z,20.12
2018-08-09T00:13:28.833Z,20.09
2018-08-09T00:15:55.759Z,20.05
2018-08-09T00:18:22.677Z,19.94
2018-08-09T00:20:51.704Z,19.95
2018-08-09T00:23:18.642Z,19.72
2018-08-09T00:25:45.559Z,19.71
2018-08-09T00:28:12.472Z,19.50
2018-08-09T00:30:39.460Z,19.49
2018-08-09T00:33:06.376Z,19.65
2018-08-09T00:35:33.289Z,19.75
2018-08-09T00:38:00.285Z,19.99
2018-08-09T00:40:27.500Z,20.00
2018-08-09T00:42:54.403Z,20.12
2018-08-09T00:45:21.369Z,20.01
2018-08-09T00:47:48.317Z,20.19
2018-08-09T00:50:15.334Z,20.05
2018-08-09T00:52:42.248Z,19.70
2018-08-09T00:55:09.166Z,20.01
2018-08-09T00:57:36.294Z,20.02
2018-08-09T01:00:04.347Z,20.07
2018-08-09T01:02:32.023Z,19.85
2018-08-09T01:05:00.596Z,20.00
2018-08-09T01:07:27.593Z,20.00
2018-08-09T01:09:54.728Z,19.98
2018-08-09T01:12:21.669Z,19.85
2018-08-09T01:14:48.606Z,19.70
2018-08-09T01:17:15.936Z,19.68
2018-08-09T01:19:42.904Z,19.62
2018-08-09T01:22:09.895Z,19.64
2018-08-09T01:24:36.816Z,19.62
2018-08-09T01:27:07.373Z,19.59
2018-08-09T01:29:34.284Z,19.56
2018-08-09T01:32:01.214Z,19.48
2018-08-09T01:34:28.149Z,19.55
2018-08-09T01:36:55.080Z,19.53
2018-08-09T01:39:22.004Z,19.53
2018-08-09T01:42:00.516Z,19.47
2018-08-09T01:44:27.432Z,19.54
2018-08-09T01:46:54.359Z,19.47
2018-08-09T01:49:21.284Z,19.37
2018-08-09T01:51:48.228Z,19.31
2018-08-09T01:54:15.134Z,19.15
2018-08-09T01:56:42.096Z,19.03
2018-08-09T01:59:09.001Z,18.94
2018-08-09T02:01:35.950Z,18.94
2018-08-09T02:04:02.887Z,18.92
2018-08-09T02:06:29.814Z,18.90
2018-08-09T02:09:01.321Z,18.82
2018-08-09T02:11:28.259Z,18.72
2018-08-09T02:13:55.175Z,18.68
2018-08-09T02:16:22.065Z,18.55
2018-08-09T02:18:48.948Z,18.46
2018-08-09T02:21:15.865Z,18.50
2018-08-09T02:23:42.747Z,18.51
2018-08-09T02:26:09.623Z,18.51
2018-08-09T02:28:36.535Z,18.48
2018-08-09T02:31:03.451Z,18.41
2018-08-09T02:33:30.331Z,18.37
2018-08-09T02:35:57.223Z,18.46
2018-08-09T02:38:24.125Z,18.40
2018-08-09T02:40:51.015Z,18.41
2018-08-09T02:43:17.923Z,18.41
2018-08-09T02:45:44.792Z,18.36
2018-08-09T02:48:11.693Z,18.39
2018-08-09T02:50:38.628Z,18.40
2018-08-09T02:53:05.553Z,18.38
2018-08-09T02:55:32.427Z,18.37
2018-08-09T02:57:59.356Z,18.37
2018-08-09T03:00:26.281Z,18.29
2018-08-09T03:02:53.163Z,18.24
2018-08-09T03:05:20.056Z,18.16
2018-08-09T03:07:46.932Z,17.99
2018-08-09T03:10:13.803Z,17.96
2018-08-09T03:12:40.689Z,17.90
2018-08-09T03:15:07.591Z,17.85
2018-08-09T03:17:34.559Z,17.79
2018-08-09T03:20:01.495Z,17.75
2018-08-09T03:22:28.442Z,17.68
2018-08-09T03:24:55.352Z,17.54
2018-08-09T03:27:22.258Z,17.60
2018-08-09T03:29:49.175Z,17.52
2018-08-09T03:32:16.085Z,17.56
2018-08-09T03:34:43.034Z,17.54
2018-08-09T03:37:09.961Z,17.44
2018-08-09T03:39:36.895Z,17.48
2018-08-09T03:42:03.950Z,17.44
2018-08-09T03:44:30.884Z,17.37
2018-08-09T03:46:57.807Z,17.39
2018-08-09T03:49:24.708Z,17.44
2018-08-09T03:51:51.584Z,17.41
2018-08-09T03:54:18.488Z,17.40
2018-08-09T03:56:45.380Z,17.47
2018-08-09T03:59:12.279Z,17.47
2018-08-09T04:01:39.186Z,17.43
2018-08-09T04:04:06.335Z,17.44
2018-08-09T04:06:33.247Z,17.40
2018-08-09T04:09:00.153Z,17.62
2018-08-09T04:11:27.068Z,17.68
2018-08-09T04:13:53.956Z,17.68
2018-08-09T04:16:20.829Z,17.73
2018-08-09T04:18:48.328Z,17.79
2018-08-09T04:21:15.204Z,17.81
2018-08-09T04:23:42.103Z,17.78
2018-08-09T04:26:09.008Z,17.79
2018-08-09T04:28:35.905Z,17.79
2018-08-09T04:31:02.780Z,17.68
2018-08-09T04:33:30.273Z,17.74
2018-08-09T04:35:57.148Z,17.56
2018-08-09T04:38:24.037Z,17.33
2018-08-09T04:40:50.912Z,17.06
2018-08-09T04:43:17.799Z,16.98
2018-08-09T04:45:44.687Z,16.97
2018-08-09T04:48:11.575Z,17.28
2018-08-09T04:50:38.456Z,17.67
2018-08-09T04:53:05.343Z,17.81
2018-08-09T04:55:32.236Z,17.81
2018-08-09T04:57:59.156Z,17.91
2018-08-09T05:00:26.052Z,17.98
2018-08-09T05:02:52.936Z,17.91
2018-08-09T05:05:19.839Z,17.99
2018-08-09T05:07:46.731Z,18.02
2018-08-09T05:10:13.678Z,18.07
2018-08-09T05:12:41.448Z,18.20
2018-08-09T05:15:08.432Z,18.35
2018-08-09T05:17:35.396Z,18.45
2018-08-09T05:20:02.716Z,18.47
2018-08-09T05:22:29.599Z,18.49
2018-08-09T05:24:56.500Z,18.61
2018-08-09T20:51:07.069Z,19.89
2018-08-09T20:53:33.985Z,19.81
2018-08-09T20:56:00.884Z,19.80
2018-08-09T20:58:27.797Z,19.81
2018-08-09T21:00:54.732Z,19.89
2018-08-09T21:03:21.625Z,19.81
2018-08-09T21:05:48.563Z,19.78
2018-08-09T21:08:15.752Z,19.77
2018-08-09T21:10:42.647Z,19.89
2018-08-09T21:13:09.552Z,19.92
2018-08-09T21:15:36.638Z,19.88
2018-08-09T21:18:03.520Z,19.92
2018-08-09T21:20:30.424Z,19.86
2018-08-09T21:22:57.370Z,19.88
2018-08-09T21:25:24.300Z,19.89
2018-08-09T21:27:51.303Z,19.86
2018-08-09T21:30:20.448Z,19.92
2018-08-09T21:32:47.908Z,19.85
2018-08-09T21:35:14.924Z,19.88
2018-08-09T21:37:42.986Z,19.82
2018-08-09T21:40:10.876Z,19.89
2018-08-09T21:42:37.827Z,19.90
2018-08-09T21:45:07.181Z,19.87
2018-08-09T21:47:34.141Z,19.82
2018-08-09T21:50:01.043Z,19.84
2018-08-09T21:52:27.968Z,19.86
2018-08-09T21:54:54.873Z,19.85
2018-08-09T21:57:21.799Z,19.81
2018-08-09T21:59:48.736Z,19.89
2018-08-09T22:02:15.671Z,19.80
2018-08-09T22:04:48.804Z,19.79
2018-08-09T22:07:21.508Z,19.78
2018-08-09T22:09:54.093Z,19.84
2018-08-09T22:12:29.600Z,19.80
2018-08-09T22:15:02.404Z,19.77
2018-08-09T22:17:35.000Z,19.74
2018-08-09T22:20:07.667Z,19.73
2018-08-09T22:22:36.504Z,19.85
2018-08-09T22:25:05.121Z,19.79
2018-08-09T22:27:32.168Z,19.74
2018-08-09T22:29:59.059Z,19.70
2018-08-09T22:32:25.956Z,19.68
2018-08-09T22:34:52.880Z,19.68
2018-08-09T22:37:19.811Z,19.70
2018-08-09T22:39:46.767Z,19.68
2018-08-09T22:42:13.668Z,19.64
2018-08-09T22:44:40.662Z,19.66
2018-08-09T22:47:07.613Z,19.72
2018-08-09T22:49:34.555Z,19.68
2018-08-09T22:52:01.516Z,19.70
2018-08-09T22:54:28.444Z,19.72
2018-08-09T22:56:55.403Z,19.67
2018-08-09T22:59:22.372Z,19.71
2018-08-09T23:01:49.308Z,19.70
2018-08-09T23:04:16.256Z,19.73
2018-08-09T23:06:43.179Z,19.76
2018-08-09T23:09:10.643Z,19.74
2018-08-09T23:11:37.603Z,19.76
2018-08-09T23:14:04.718Z,19.76
2018-08-09T23:16:31.668Z,19.73
2018-08-09T23:18:58.611Z,19.76
2018-08-09T23:21:25.532Z,19.79
2018-08-09T23:23:52.467Z,19.79
2018-08-09T23:26:19.403Z,19.77
2018-08-09T23:28:46.344Z,19.92
2018-08-09T23:31:13.249Z,19.99
2018-08-09T23:33:40.205Z,19.98
2018-08-09T23:36:07.108Z,20.02
2018-08-09T23:38:34.052Z,20.01
2018-08-09T23:41:01.020Z,19.95
2018-08-09T23:43:27.934Z,19.88
2018-08-09T23:45:54.840Z,19.86
2018-08-09T23:48:21.768Z,20.01
2018-08-09T23:50:48.700Z,19.94
2018-08-09T23:53:15.616Z,19.85
2018-08-09T23:55:42.535Z,19.95
2018-08-09T23:58:09.468Z,19.92
